createdAt,value
2023-05-14T00:00:25.847Z,9.79
2023-05-14T00:03:14.355Z,9.75
2023-05-14T00:05:42.625Z,9.71
2023-05-14T00:08:10.556Z,9.68
2023-05-14T00:10:38.665Z,9.67
2023-05-14T00:13:06.630Z,9.66
2023-05-14T00:15:34.715Z,9.67
2023-05-14T00:18:03.109Z,9.68
2023-05-14T00:20:31.285Z,9.72
2023-05-14T00:22:59.330Z,9.78
2023-05-14T00:25:27.617Z,9.84
2023-05-14T00:27:55.536Z,9.91
2023-05-14T00:30:24.187Z,9.96
2023-05-14T00:32:52.356Z,10.01
2023-05-14T00:35:21.940Z,10.05
2023-05-14T00:37:49.934Z,10.11
2023-05-14T00:40:18.394Z,10.13
2023-05-14T00:42:46.465Z,10.11
2023-05-14T00:45:14.842Z,10.06
2023-05-14T00:47:43.739Z,10.04
2023-05-14T00:50:12.777Z,10.01
2023-05-14T00:52:41.470Z,10.00
2023-05-14T00:55:13.028Z,9.97
2023-05-14T00:57:41.039Z,10.00
2023-05-14T01:00:09.768Z,10.05
2023-05-14T01:02:38.241Z,10.05
2023-05-14T01:05:08.335Z,10.04
2023-05-14T01:07:55.344Z,10.03
2023-05-14T01:10:37.477Z,10.05
2023-05-14T01:13:18.528Z,10.06
2023-05-14T01:15:48.132Z,10.06
2023-05-14T01:18:19.166Z,10.12
2023-05-14T01:20:51.531Z,10.17
2023-05-14T01:23:19.925Z,10.23
2023-05-14T01:25:47.915Z,10.28
2023-05-14T01:28:22.014Z,10.34
2023-05-14T01:31:16.520Z,10.39
2023-05-14T01:33:47.939Z,10.48
2023-05-14T01:36:16.448Z,10.52
2023-05-14T01:38:47.259Z,10.57
2023-05-14T01:41:16.661Z,10.59
2023-05-14T01:43:45.713Z,10.60
2023-05-14T01:46:13.703Z,10.59
2023-05-14T01:48:42.007Z,10.57
2023-05-14T01:51:10.046Z,10.55
2023-05-14T01:53:38.039Z,10.52
2023-05-14T01:56:06.312Z,10.50
2023-05-14T01:58:34.489Z,10.50
2023-05-14T02:01:02.499Z,10.49
2023-05-14T02:03:31.295Z,10.46
2023-05-14T02:05:59.982Z,10.40
2023-05-14T02:08:28.805Z,10.35
2023-05-14T02:10:56.952Z,10.30
2023-05-14T02:13:26.621Z,10.23
2023-05-14T02:15:54.691Z,10.21
2023-05-14T02:18:22.951Z,10.21
2023-05-14T02:20:50.876Z,10.23
2023-05-14T02:23:20.629Z,10.25
2023-05-14T02:25:53.662Z,10.27
2023-05-14T02:28:21.569Z,10.28
2023-05-14T02:30:49.761Z,10.27
2023-05-14T02:33:17.868Z,10.28
2023-05-14T02:35:45.914Z,10.30
2023-05-14T02:38:15.112Z,10.32
2023-05-14T02:40:43.176Z,10.35
2023-05-14T02:43:11.410Z,10.39
2023-05-14T02:45:39.456Z,10.44
2023-05-14T02:48:07.956Z,10.45
2023-05-14T02:50:36.281Z,10.44
2023-05-14T02:53:04.228Z,10.45
2023-05-14T02:55:32.324Z,10.46
2023-05-14T02:58:00.497Z,10.44
2023-05-14T03:00:28.441Z,10.43
2023-05-14T03:02:57.242Z,10.41
2023-05-14T03:05:25.839Z,10.41
2023-05-14T03:07:54.219Z,10.44
2023-05-14T03:10:22.479Z,10.45
2023-05-14T03:12:50.682Z,10.44
2023-05-14T03:15:18.948Z,10.45
2023-05-14T03:17:47.096Z,10.43
2023-05-14T03:20:16.079Z,10.41
2023-05-14T03:22:44.303Z,10.37
2023-05-14T03:25:12.412Z,10.34
2023-05-14T03:27:40.366Z,10.31
2023-05-14T03:30:09.021Z,10.27
2023-05-14T03:32:37.632Z,10.28
2023-05-14T03:35:06.587Z,10.28
2023-05-14T03:37:34.663Z,10.29
2023-05-14T03:40:03.453Z,10.27
2023-05-14T03:42:31.728Z,10.26
2023-05-14T03:45:00.022Z,10.26
2023-05-14T03:47:28.301Z,10.25
2023-05-14T03:49:57.474Z,10.22
2023-05-14T03:52:25.647Z,10.17
2023-05-14T03:54:53.616Z,10.11
2023-05-14T03:57:21.897Z,10.05
2023-05-14T03:59:49.964Z,10.02
2023-05-14T04:02:17.975Z,9.98
2023-05-14T04:04:46.050Z,9.95
2023-05-14T04:07:14.282Z,9.94
2023-05-14T04:09:42.251Z,9.90
2023-05-14T04:12:10.321Z,9.89
2023-05-14T04:14:38.391Z,9.89
2023-05-14T04:17:06.400Z,9.89
2023-05-14T04:19:34.549Z,9.85
2023-05-14T04:22:04.762Z,9.77
2023-05-14T04:24:32.758Z,9.70
2023-05-14T04:27:00.864Z,9.68
2023-05-14T04:29:28.932Z,9.68
2023-05-14T04:31:56.928Z,9.70
2023-05-14T04:34:25.000Z,9.73
2023-05-14T04:36:52.983Z,9.78
2023-05-14T04:39:20.927Z,9.84
2023-05-14T04:41:48.928Z,9.88
2023-05-14T04:44:17.393Z,9.95
2023-05-14T04:46:45.585Z,10.00
2023-05-14T04:49:13.554Z,10.01
2023-05-14T04:51:41.917Z,10.02
2023-05-14T04:54:10.241Z,10.03
2023-05-14T04:56:39.187Z,10.10
2023-05-14T04:59:07.269Z,10.15
2023-05-14T05:01:35.252Z,10.21
2023-05-14T05:04:03.445Z,10.28
2023-05-14T05:06:31.787Z,10.36
2023-05-14T05:09:01.927Z,10.44
2023-05-14T05:11:30.355Z,10.51
2023-05-14T05:13:58.575Z,10.58
2023-05-14T05:16:26.746Z,10.64
2023-05-14T05:18:54.998Z,10.71
2023-05-14T05:21:23.190Z,10.79
2023-05-14T05:23:51.157Z,10.86
2023-05-14T05:26:19.267Z,10.91
2023-05-14T05:28:47.343Z,10.98
2023-05-14T05:31:17.608Z,11.06
2023-05-14T05:33:48.149Z,11.14
2023-05-14T05:36:16.292Z,11.18
2023-05-14T05:38:44.196Z,11.22
2023-05-14T05:41:12.365Z,11.22
2023-05-14T05:43:40.496Z,11.17
2023-05-14T05:46:08.592Z,11.17
2023-05-14T05:48:36.788Z,11.20
2023-05-14T05:51:05.060Z,11.22
2023-05-14T05:53:33.136Z,11.23
2023-05-14T05:56:01.064Z,11.29
2023-05-14T05:58:29.379Z,11.36
2023-05-14T06:00:58.183Z,11.46
2023-05-14T06:03:27.162Z,11.51
2023-05-14T06:05:55.130Z,11.58
2023-05-14T06:08:23.125Z,11.64
2023-05-14T06:10:51.272Z,11.66
2023-05-14T06:13:19.449Z,11.70
2023-05-14T06:15:47.356Z,11.79
2023-05-14T06:18:15.392Z,11.88
2023-05-14T06:20:43.449Z,11.97
2023-05-14T06:23:12.488Z,11.98
2023-05-14T06:25:40.462Z,11.95
2023-05-14T06:28:08.344Z,11.98
2023-05-14T06:30:36.458Z,12.01
2023-05-14T06:33:04.402Z,12.06
2023-05-14T06:35:32.919Z,12.14
2023-05-14T06:38:00.979Z,12.16
2023-05-14T06:40:29.036Z,12.15
2023-05-14T06:42:57.031Z,12.20
2023-05-14T06:45:25.364Z,12.19
2023-05-14T06:47:53.393Z,12.14
2023-05-14T06:50:21.825Z,12.17
2023-05-14T06:52:50.329Z,12.21
2023-05-14T06:55:18.400Z,12.29
2023-05-14T06:57:46.579Z,12.36
2023-05-14T07:00:15.785Z,12.35
2023-05-14T07:02:43.788Z,12.37
2023-05-14T07:05:12.000Z,12.45
2023-05-14T07:07:39.899Z,12.52
2023-05-14T07:10:08.297Z,12.56
2023-05-14T07:12:36.243Z,12.63
2023-05-14T07:15:05.336Z,12.70
2023-05-14T07:17:33.453Z,12.73
2023-05-14T07:20:01.592Z,12.79
2023-05-14T07:22:29.645Z,12.79
2023-05-14T07:24:57.736Z,12.82
2023-05-14T07:27:26.095Z,12.85
2023-05-14T07:29:54.075Z,12.89
2023-05-14T07:32:22.136Z,12.94
2023-05-14T07:34:50.286Z,12.96
2023-05-14T07:37:19.098Z,13.00
2023-05-14T07:39:46.969Z,13.08
2023-05-14T07:42:24.629Z,13.14
2023-05-14T07:45:00.326Z,13.18
2023-05-14T07:47:28.401Z,13.19
2023-05-14T07:49:57.403Z,13.15
2023-05-14T07:52:25.657Z,13.13
2023-05-14T07:54:53.850Z,13.11
2023-05-14T07:57:22.261Z,13.12
2023-05-14T07:59:50.581Z,13.18
2023-05-14T08:02:19.008Z,13.24
2023-05-14T08:04:46.989Z,13.31
2023-05-14T08:07:15.003Z,13.41
2023-05-14T08:09:43.280Z,13.49
2023-05-14T08:12:11.451Z,13.55
2023-05-14T08:14:39.446Z,13.62
2023-05-14T08:17:07.427Z,13.70
2023-05-14T08:19:35.682Z,13.80
2023-05-14T08:22:04.048Z,13.89
2023-05-14T08:24:32.326Z,13.98
2023-05-14T08:27:00.611Z,14.05
2023-05-14T08:29:28.880Z,14.13
2023-05-14T08:31:57.992Z,14.21
2023-05-14T08:34:26.264Z,14.20
2023-05-14T08:36:55.352Z,14.25
2023-05-14T08:39:23.418Z,14.34
2023-05-14T08:41:52.118Z,14.48
2023-05-14T08:44:25.925Z,14.57
2023-05-14T08:46:54.708Z,14.58
2023-05-14T08:49:43.386Z,14.55
2023-05-14T08:52:12.063Z,14.48
2023-05-14T08:54:40.619Z,14.47
2023-05-14T08:57:11.764Z,14.47
2023-05-14T08:59:39.736Z,14.54
2023-05-14T09:02:10.278Z,14.61
2023-05-14T09:04:39.886Z,14.70
2023-05-14T09:07:07.909Z,14.73
2023-05-14T09:09:36.737Z,14.77
2023-05-14T09:12:06.443Z,14.80
2023-05-14T09:14:34.582Z,14.79
2023-05-14T09:17:03.505Z,14.77
2023-05-14T09:19:31.740Z,14.73
2023-05-14T09:22:00.077Z,14.81
2023-05-14T09:24:31.818Z,15.00
2023-05-14T09:26:59.899Z,15.15
2023-05-14T09:29:29.889Z,15.23
2023-05-14T09:32:00.398Z,15.23
2023-05-14T09:34:30.858Z,15.20
2023-05-14T09:37:04.527Z,15.25
2023-05-14T09:39:34.373Z,15.34
2023-05-14T09:42:03.369Z,15.42
2023-05-14T09:44:31.965Z,15.48
2023-05-14T09:46:59.991Z,15.54
2023-05-14T09:49:28.524Z,15.60
2023-05-14T09:51:58.108Z,15.69
2023-05-14T09:54:27.417Z,15.67
2023-05-14T09:56:55.994Z,15.61
2023-05-14T09:59:23.931Z,15.51
2023-05-14T10:01:52.650Z,15.48
2023-05-14T10:04:21.041Z,15.54
2023-05-14T10:06:52.071Z,15.62
2023-05-14T10:09:23.363Z,15.71
2023-05-14T10:11:54.358Z,15.79
2023-05-14T10:14:29.442Z,15.94
2023-05-14T10:17:00.883Z,16.13
2023-05-14T10:19:35.261Z,16.30
2023-05-14T10:22:07.045Z,16.42
2023-05-14T10:24:38.928Z,16.45
2023-05-14T10:27:07.365Z,16.51
2023-05-14T10:29:37.572Z,16.58
2023-05-14T10:32:07.893Z,16.60
2023-05-14T10:34:46.687Z,16.67
2023-05-14T10:37:18.919Z,16.72
2023-05-14T10:39:48.338Z,16.75
2023-05-14T10:42:40.984Z,16.76
2023-05-14T10:45:13.212Z,16.75
2023-05-14T10:47:47.203Z,16.77
2023-05-14T10:50:16.038Z,16.85
2023-05-14T10:52:47.175Z,16.85
2023-05-14T10:55:16.931Z,16.85
2023-05-14T10:57:46.630Z,16.94
2023-05-14T11:00:15.158Z,17.04
2023-05-14T11:02:45.139Z,17.21
2023-05-14T11:05:17.003Z,17.32
2023-05-14T11:07:47.371Z,17.39
2023-05-14T11:10:17.965Z,17.38
2023-05-14T11:12:47.833Z,17.27
2023-05-14T11:15:21.938Z,17.25
2023-05-14T11:17:51.923Z,17.30
2023-05-14T11:20:21.438Z,17.29
2023-05-14T11:22:51.901Z,17.25
2023-05-14T11:25:21.912Z,17.36
2023-05-14T11:27:50.561Z,17.43
2023-05-14T11:30:19.993Z,17.43
2023-05-14T11:32:50.036Z,17.37
2023-05-14T11:35:18.804Z,17.27
2023-05-14T11:37:52.464Z,17.27
2023-05-14T11:40:20.870Z,17.26
2023-05-14T11:42:53.482Z,17.20
2023-05-14T11:45:26.688Z,17.17
2023-05-14T11:47:55.112Z,17.18
2023-05-14T11:50:23.645Z,17.17
2023-05-14T11:52:57.478Z,17.14
2023-05-14T11:55:25.893Z,17.16
2023-05-14T11:57:54.367Z,17.27
2023-05-14T12:00:24.072Z,17.43
2023-05-14T12:02:52.961Z,17.54
2023-05-14T12:05:21.264Z,17.57
2023-05-14T12:07:49.599Z,17.63
2023-05-14T12:10:17.597Z,17.73
2023-05-14T12:12:47.987Z,17.95
2023-05-14T12:15:17.239Z,18.18
2023-05-14T12:17:54.004Z,18.34
2023-05-14T12:20:23.675Z,18.47
2023-05-14T12:22:51.940Z,18.55
2023-05-14T12:25:20.051Z,18.63
2023-05-14T12:27:48.024Z,18.59
2023-05-14T12:30:21.905Z,18.56
2023-05-14T12:32:52.783Z,18.56
2023-05-14T12:35:22.886Z,18.67
2023-05-14T12:37:51.284Z,18.78
2023-05-14T12:40:19.399Z,18.89
2023-05-14T12:42:47.556Z,18.92
2023-05-14T12:45:15.581Z,18.90
2023-05-14T12:47:43.748Z,18.84
2023-05-14T12:50:12.041Z,18.71
2023-05-14T12:52:40.241Z,18.71
2023-05-14T12:55:09.756Z,18.62
2023-05-14T12:57:39.506Z,18.50
2023-05-14T13:00:21.219Z,18.50
2023-05-14T13:02:49.637Z,18.42
2023-05-14T13:05:18.033Z,18.45
2023-05-14T13:07:46.090Z,18.49
2023-05-14T13:10:14.427Z,18.43
2023-05-14T13:12:42.328Z,18.40
2023-05-14T13:15:11.206Z,18.41
2023-05-14T13:17:40.524Z,18.39
2023-05-14T13:20:09.367Z,18.42
2023-05-14T13:22:37.301Z,18.30
2023-05-14T13:25:06.132Z,18.15
2023-05-14T13:27:36.040Z,18.02
2023-05-14T13:30:04.573Z,17.90
2023-05-14T13:32:32.767Z,17.87
2023-05-14T13:35:01.007Z,17.77
2023-05-14T13:37:29.046Z,17.71
2023-05-14T13:39:57.127Z,17.61
2023-05-14T13:42:25.709Z,17.56
2023-05-14T13:44:53.640Z,17.68
2023-05-14T13:47:21.635Z,17.87
2023-05-14T13:49:49.918Z,18.00
2023-05-14T13:52:17.821Z,17.90
2023-05-14T13:54:46.378Z,17.80
2023-05-14T13:57:15.458Z,17.71
2023-05-14T13:59:43.638Z,17.62
2023-05-14T14:02:11.911Z,17.63
2023-05-14T14:04:39.861Z,17.67
2023-05-14T14:07:09.189Z,17.69
2023-05-14T14:09:37.155Z,17.71
2023-05-14T14:12:06.502Z,17.68
2023-05-14T14:14:34.641Z,17.62
2023-05-14T14:17:02.708Z,17.59
2023-05-14T14:19:30.684Z,17.59
2023-05-14T14:21:58.742Z,17.59
2023-05-14T14:24:27.017Z,17.52
2023-05-14T14:26:55.041Z,17.38
2023-05-14T14:29:24.033Z,17.19
2023-05-14T14:31:52.337Z,17.06
2023-05-14T14:34:21.353Z,16.97
2023-05-14T14:36:49.401Z,16.95
2023-05-14T14:39:17.714Z,16.92
2023-05-14T14:41:45.980Z,16.89
2023-05-14T14:44:14.048Z,16.78
2023-05-14T14:46:43.078Z,16.68
2023-05-14T14:49:11.324Z,16.65
2023-05-14T14:51:39.704Z,16.65
2023-05-14T14:54:07.971Z,16.68
2023-05-14T14:56:35.999Z,16.68
2023-05-14T14:59:04.121Z,16.64
2023-05-14T15:01:32.346Z,16.58
2023-05-14T15:04:00.469Z,16.48
2023-05-14T15:06:28.537Z,16.30
2023-05-14T15:08:56.816Z,16.13
2023-05-14T15:11:24.942Z,15.99
2023-05-14T15:13:52.969Z,15.88
2023-05-14T15:16:21.178Z,15.82
2023-05-14T15:18:49.409Z,15.74
2023-05-14T15:21:17.994Z,15.66
2023-05-14T15:23:46.003Z,15.61
2023-05-14T15:26:14.244Z,15.54
2023-05-14T15:28:42.825Z,15.50
2023-05-14T15:31:10.850Z,15.41
2023-05-14T15:33:39.173Z,15.30
2023-05-14T15:36:08.374Z,15.27
2023-05-14T15:38:36.542Z,15.29
2023-05-14T15:41:05.692Z,15.28
2023-05-14T15:43:33.679Z,15.24
2023-05-14T15:46:01.816Z,15.19
2023-05-14T15:48:30.098Z,15.17
2023-05-14T15:50:58.887Z,15.14
2023-05-14T15:53:26.970Z,15.06
2023-05-14T15:55:55.190Z,14.98
2023-05-14T15:58:23.113Z,14.91
2023-05-14T16:00:51.340Z,14.83
2023-05-14T16:03:19.593Z,14.77
2023-05-14T16:05:48.651Z,14.67
2023-05-14T16:08:16.674Z,14.61
2023-05-14T16:10:44.643Z,14.60
2023-05-14T16:13:12.612Z,14.60
2023-05-14T16:15:40.622Z,14.64
2023-05-14T16:18:08.621Z,14.62
2023-05-14T16:20:36.622Z,14.61
2023-05-14T16:23:05.004Z,14.57
2023-05-14T16:25:33.100Z,14.56
2023-05-14T16:28:01.191Z,14.62
2023-05-14T16:30:29.696Z,14.68
2023-05-14T16:32:57.833Z,14.70
2023-05-14T16:35:26.186Z,14.70
2023-05-14T16:37:54.674Z,14.64
2023-05-14T16:40:23.641Z,14.57
2023-05-14T16:42:52.134Z,14.50
2023-05-14T16:45:20.098Z,14.40
2023-05-14T16:47:48.302Z,14.33
2023-05-14T16:50:16.648Z,14.32
2023-05-14T16:52:44.775Z,14.33
2023-05-14T16:55:12.910Z,14.31
2023-05-14T16:57:40.964Z,14.33
2023-05-14T17:00:12.517Z,14.29
2023-05-14T17:02:41.027Z,14.19
2023-05-14T17:05:09.485Z,14.08
2023-05-14T17:07:39.105Z,14.02
2023-05-14T17:10:07.891Z,13.96
2023-05-14T17:12:35.949Z,13.94
2023-05-14T17:15:06.685Z,13.99
2023-05-14T17:17:34.766Z,14.04
2023-05-14T17:20:05.954Z,14.04
2023-05-14T17:22:34.496Z,13.98
2023-05-14T17:25:02.783Z,13.89
2023-05-14T17:27:33.412Z,13.82
2023-05-14T17:30:01.566Z,13.78
2023-05-14T17:32:31.366Z,13.73
2023-05-14T17:34:59.606Z,13.71
2023-05-14T17:37:27.587Z,13.67
2023-05-14T17:39:55.790Z,13.63
2023-05-14T17:42:23.863Z,13.58
2023-05-14T17:44:51.940Z,13.52
2023-05-14T17:47:20.717Z,13.49
2023-05-14T17:49:48.898Z,13.50
2023-05-14T17:52:16.995Z,13.51
2023-05-14T17:54:45.156Z,13.53
2023-05-14T17:57:13.315Z,13.55
2023-05-14T17:59:41.604Z,13.57
2023-05-14T18:02:09.577Z,13.61
2023-05-14T18:04:37.697Z,13.63
2023-05-14T18:07:06.029Z,13.60
2023-05-14T18:09:34.161Z,13.54
2023-05-14T18:12:02.275Z,13.51
2023-05-14T18:14:30.350Z,13.45
2023-05-14T18:16:58.440Z,13.38
2023-05-14T18:19:26.493Z,13.35
2023-05-14T18:21:55.627Z,13.35
2023-05-14T18:24:23.970Z,13.33
2023-05-14T18:26:52.043Z,13.32
2023-05-14T18:29:20.143Z,13.28
2023-05-14T18:31:48.134Z,13.20
2023-05-14T18:34:17.097Z,13.08
2023-05-14T18:36:45.151Z,12.99
2023-05-14T18:39:13.216Z,12.96
2023-05-14T18:41:41.109Z,12.94
2023-05-14T18:44:09.111Z,12.94
2023-05-14T18:46:37.317Z,12.92
2023-05-14T18:49:05.848Z,12.87
2023-05-14T18:51:34.391Z,12.81
2023-05-14T18:54:02.404Z,12.78
2023-05-14T18:56:30.790Z,12.75
2023-05-14T18:58:58.749Z,12.65
2023-05-14T19:01:26.780Z,12.59
2023-05-14T19:03:55.025Z,12.56
2023-05-14T19:06:23.450Z,12.53
2023-05-14T19:08:51.818Z,12.50
2023-05-14T19:11:19.844Z,12.45
2023-05-14T19:13:49.613Z,12.41
2023-05-14T19:16:17.696Z,12.41
2023-05-14T19:18:45.981Z,12.43
2023-05-14T19:21:15.396Z,12.44
2023-05-14T19:23:43.528Z,12.41
2023-05-14T19:26:11.662Z,12.38
2023-05-14T19:28:39.980Z,12.38
2023-05-14T19:31:07.985Z,12.40
2023-05-14T19:33:36.046Z,12.38
2023-05-14T19:36:04.906Z,12.38
2023-05-14T19:38:33.184Z,12.34
2023-05-14T19:41:01.170Z,12.34
2023-05-14T19:43:29.126Z,12.35
2023-05-14T19:45:58.015Z,12.37
2023-05-14T19:48:27.415Z,12.37
2023-05-14T19:50:55.683Z,12.30
2023-05-14T19:53:30.004Z,12.27
2023-05-14T19:55:58.283Z,12.28
2023-05-14T19:58:26.728Z,12.33
2023-05-14T20:00:57.353Z,12.39
2023-05-14T20:03:28.113Z,12.44
2023-05-14T20:05:56.511Z,12.44
2023-05-14T20:08:25.086Z,12.40
2023-05-14T20:10:53.061Z,12.37
2023-05-14T20:13:25.003Z,12.30
2023-05-14T20:15:55.274Z,12.25
2023-05-14T20:18:23.422Z,12.23
2023-05-14T20:20:52.001Z,12.22
2023-05-14T20:23:20.997Z,12.20
2023-05-14T20:25:49.170Z,12.19
2023-05-14T20:28:17.075Z,12.19
2023-05-14T20:30:46.416Z,12.18
2023-05-14T20:33:15.142Z,12.15
2023-05-14T20:35:44.134Z,12.17
2023-05-14T20:38:13.630Z,12.17
2023-05-14T20:40:41.696Z,12.17
2023-05-14T20:43:09.769Z,12.17
2023-05-14T20:45:38.153Z,12.18
2023-05-14T20:48:12.130Z,12.20
2023-05-14T20:50:40.094Z,12.21
2023-05-14T20:53:08.142Z,12.23
2023-05-14T20:55:36.279Z,12.22
2023-05-14T20:58:04.254Z,12.21
2023-05-14T21:00:32.344Z,12.24
2023-05-14T21:03:00.593Z,12.26
2023-05-14T21:05:29.169Z,12.28
2023-05-14T21:07:57.206Z,12.31
2023-05-14T21:10:26.014Z,12.37
2023-05-14T21:12:54.519Z,12.37
2023-05-14T21:15:23.088Z,12.36
2023-05-14T21:17:52.561Z,12.33
2023-05-14T21:20:20.699Z,12.35
2023-05-14T21:22:48.752Z,12.37
2023-05-14T21:25:16.883Z,12.40
2023-05-14T21:27:44.823Z,12.47
2023-05-14T21:30:13.383Z,12.53
2023-05-14T21:32:41.717Z,12.56
2023-05-14T21:35:10.166Z,12.55
2023-05-14T21:37:39.932Z,12.51
2023-05-14T21:40:12.535Z,12.50
2023-05-14T21:42:40.997Z,12.53
2023-05-14T21:45:09.576Z,12.57
2023-05-14T21:47:38.220Z,12.58
2023-05-14T21:50:07.153Z,12.62
2023-05-14T21:52:35.482Z,12.65
2023-05-14T21:55:04.156Z,12.67
2023-05-14T21:57:34.492Z,12.64
2023-05-14T22:00:07.700Z,12.65
2023-05-14T22:02:35.850Z,12.70
2023-05-14T22:05:05.300Z,12.77
2023-05-14T22:07:33.312Z,12.82
2023-05-14T22:10:01.567Z,12.89
2023-05-14T22:12:29.703Z,12.94
2023-05-14T22:14:57.885Z,12.97
2023-05-14T22:17:28.164Z,12.95
2023-05-14T22:19:56.654Z,12.89
2023-05-14T22:22:24.629Z,12.86
2023-05-14T22:24:52.600Z,12.90
2023-05-14T22:27:20.821Z,12.96
2023-05-14T22:29:48.758Z,13.02
2023-05-14T22:32:16.825Z,13.06
2023-05-14T22:34:44.861Z,13.09
2023-05-14T22:37:13.108Z,13.10
2023-05-14T22:39:41.287Z,13.08
2023-05-14T22:42:09.367Z,13.05
2023-05-14T22:44:37.426Z,13.05
2023-05-14T22:47:05.458Z,13.08
2023-05-14T22:49:33.575Z,13.11
2023-05-14T22:52:01.702Z,13.13
2023-05-14T22:54:29.661Z,13.12
2023-05-14T22:56:57.889Z,13.15
2023-05-14T22:59:26.113Z,13.19
2023-05-14T23:01:54.154Z,13.20
2023-05-14T23:04:22.677Z,13.19
2023-05-14T23:06:50.902Z,13.13
2023-05-14T23:09:19.168Z,13.09
2023-05-14T23:11:47.239Z,13.08
2023-05-14T23:14:15.302Z,13.08
2023-05-14T23:16:43.591Z,13.10
2023-05-14T23:19:11.748Z,13.12
2023-05-14T23:21:40.001Z,13.13
2023-05-14T23:24:08.188Z,13.12
2023-05-14T23:26:36.491Z,13.10
2023-05-14T23:29:04.416Z,13.06
2023-05-14T23:31:32.470Z,13.03
2023-05-14T23:34:01.018Z,13.01
2023-05-14T23:36:31.540Z,13.01
2023-05-14T23:39:00.136Z,13.03
2023-05-14T23:41:28.134Z,13.04
2023-05-14T23:43:56.155Z,13.07
2023-05-14T23:46:24.540Z,13.09
2023-05-14T23:48:57.161Z,13.09
2023-05-14T23:51:27.647Z,13.04
2023-05-14T23:53:58.537Z,13.01
2023-05-14T23:56:29.203Z,13.00
2023-05-14T23:58:57.801Z,13.01
